Time;durP1;ratioP1;P1;durP2;ratioP2;P2;SDS_P1;SDS_P2;PMS_P1;PMS_P2;Temp;Humidity;BMP_temperature;BMP_pressure;BME280_temperature;BME280_humidity;BME280_pressure;Samples;Min_cycle;Max_cycle;Signal;HPM_P1;HPM_P2
2023/05/08 00:01:08;;;;;;;3.30;3.10;;;22.20;64.40;22.90;101144.00;;;;5029241;28;20178;-57
2023/05/08 00:03:34;;;;;;;2.90;2.70;;;22.20;64.50;22.90;101152.00;;;;5029241;28;20691;-55
2023/05/08 00:06:04;;;;;;;3.20;3.00;;;22.20;64.50;22.90;101151.00;;;;5029387;28;20178;-57
2023/05/08 00:08:30;;;;;;;3.40;3.10;;;22.20;64.40;22.90;101154.00;;;;5029266;28;20317;-57
2023/05/08 00:10:55;;;;;;;3.10;2.90;;;22.20;64.40;22.80;101154.00;;;;5029115;28;20579;-57
2023/05/08 00:13:21;;;;;;;2.60;2.40;;;22.20;64.30;22.80;101149.00;;;;5029238;28;20207;-56
2023/05/08 00:15:47;;;;;;;2.80;2.60;;;22.20;64.20;22.80;101157.00;;;;5029260;28;20174;-56
2023/05/08 00:18:13;;;;;;;2.80;2.60;;;22.10;64.10;22.80;101156.00;;;;5029146;28;20225;-56
2023/05/08 00:20:38;;;;;;;3.13;2.60;;;22.10;64.10;22.80;101170.00;;;;5029088;28;20665;-56
2023/05/08 00:23:04;;;;;;;3.00;2.80;;;22.20;64.20;22.80;101160.00;;;;5029109;28;20278;-56
2023/05/08 00:25:30;;;;;;;2.80;2.60;;;22.10;64.20;22.80;101153.00;;;;5029282;28;20225;-56
2023/05/08 00:27:57;;;;;;;3.00;2.80;;;22.10;64.20;22.80;101161.00;;;;5028178;28;20282;-56
2023/05/08 00:30:23;;;;;;;3.00;2.80;;;22.10;64.20;22.80;101162.00;;;;5029017;28;20653;-55
2023/05/08 00:32:48;;;;;;;3.00;2.80;;;22.10;64.20;22.80;101161.00;;;;5028878;28;20202;-57
2023/05/08 00:35:14;;;;;;;3.20;3.00;;;22.10;64.20;22.80;101157.00;;;;5028904;28;20221;-55
2023/05/08 00:37:40;;;;;;;3.00;2.80;;;22.10;64.20;22.80;101167.00;;;;5028607;28;20178;-55
2023/05/08 00:40:08;;;;;;;3.00;2.80;;;22.10;64.30;22.80;101165.00;;;;5028368;28;20199;-56
2023/05/08 00:42:34;;;;;;;2.93;2.67;;;22.00;64.30;22.80;101165.00;;;;5027291;28;20200;-56
2023/05/08 00:45:00;;;;;;;3.10;2.90;;;22.10;64.30;22.80;101166.00;;;;5028858;28;20244;-55
2023/05/08 00:47:25;;;;;;;2.83;2.63;;;22.10;64.30;22.70;101163.00;;;;5028407;28;20181;-55
2023/05/08 00:49:51;;;;;;;3.80;2.80;;;22.00;64.30;22.80;101168.00;;;;5027507;28;20711;-55
2023/05/08 00:52:17;;;;;;;2.87;2.67;;;22.00;64.30;22.80;101167.00;;;;5027702;28;20194;-55
2023/05/08 00:54:43;;;;;;;2.90;2.70;;;22.00;64.20;22.70;101164.00;;;;5028730;28;20234;-56
2023/05/08 00:57:08;;;;;;;2.80;2.60;;;22.10;64.30;22.70;101167.00;;;;5026887;28;20221;-56
2023/05/08 00:59:35;;;;;;;3.00;2.80;;;22.10;64.30;22.70;101161.00;;;;5027046;28;20199;-57
2023/05/08 01:02:01;;;;;;;2.70;2.50;;;22.00;64.30;22.70;101165.00;;;;5028737;28;20202;-57
2023/05/08 01:04:27;;;;;;;3.00;2.80;;;22.00;64.30;22.70;101161.00;;;;5028674;28;20654;-55
2023/05/08 01:06:52;;;;;;;2.90;2.70;;;22.00;64.30;22.70;101163.00;;;;5026913;28;20557;-57
2023/05/08 01:09:18;;;;;;;3.50;2.73;;;22.00;64.30;22.50;101166.00;;;;5027019;28;20222;-56
2023/05/08 01:12:09;;;;;;;3.20;3.00;;;22.00;64.30;22.70;101156.00;;;;5028384;28;20194;-57
2023/05/08 01:14:44;;;;;;;3.00;2.80;;;22.00;64.30;22.70;101148.00;;;;5012586;28;20354;-58
2023/05/08 01:17:37;;;;;;;2.80;2.60;;;22.00;64.30;22.70;101171.00;;;;5026747;28;20178;-55
2023/05/08 01:20:29;;;;;;;3.00;2.70;;;21.90;64.20;22.60;101175.00;;;;5027499;28;20230;-56
2023/05/08 01:23:26;;;;;;;3.10;2.87;;;21.90;64.30;22.60;101176.00;;;;5026964;28;20711;-57
2023/05/08 01:26:21;;;;;;;3.13;2.93;;;21.90;64.30;22.60;101171.00;;;;5027136;28;20528;-57
2023/05/08 01:29:05;;;;;;;2.90;2.60;;;21.90;64.30;22.60;101171.00;;;;5026939;28;20318;-56
2023/05/08 01:32:09;;;;;;;3.00;2.80;;;21.90;64.30;22.60;101173.00;;;;5028199;28;20193;-57
2023/05/08 01:34:35;;;;;;;2.80;2.60;;;21.90;64.20;22.50;101169.00;;;;5022602;28;20214;-56
2023/05/08 01:37:11;;;;;;;2.80;2.60;;;21.90;64.30;22.50;101179.00;;;;5026727;28;20617;-55
2023/05/08 01:40:01;;;;;;;3.57;3.03;;;21.90;64.30;22.50;101180.00;;;;5031803;28;20298;-54
2023/05/08 01:42:47;;;;;;;3.10;2.83;;;21.90;64.40;22.60;101183.00;;;;5039454;28;20274;-55
2023/05/08 01:45:22;;;;;;;2.87;2.67;;;21.90;64.30;22.50;101174.00;;;;5035425;28;20190;-55
2023/05/08 01:47:54;;;;;;;2.80;2.60;;;21.90;64.40;22.50;101180.00;;;;5035704;28;20636;-55
2023/05/08 01:50:39;;;;;;;3.07;2.80;;;21.90;64.30;22.50;101187.00;;;;5037910;28;20199;-55
2023/05/08 01:53:29;;;;;;;3.07;2.77;;;21.90;64.30;22.50;101195.00;;;;5032866;28;20229;-55
2023/05/08 01:55:58;;;;;;;3.00;2.80;;;21.90;64.40;22.50;101175.00;;;;5026028;28;20263;-55
2023/05/08 01:58:24;;;;;;;2.90;2.70;;;21.80;64.30;22.50;101189.00;;;;5015495;28;20729;-55
2023/05/08 02:00:50;;;;;;;2.97;2.77;;;21.90;64.40;22.50;101191.00;;;;5030608;28;20176;-56
2023/05/08 02:03:16;;;;;;;2.93;2.73;;;21.80;64.30;22.50;101182.00;;;;5030504;28;20205;-55
2023/05/08 02:05:42;;;;;;;2.90;2.70;;;21.80;64.30;22.50;101184.00;;;;5030665;28;20309;-56
2023/05/08 02:08:08;;;;;;;3.03;2.80;;;21.80;64.30;22.50;101193.00;;;;5029452;28;20267;-56
2023/05/08 02:10:34;;;;;;;3.17;2.97;;;21.80;64.30;22.50;101184.00;;;;5032922;28;20566;-58
2023/05/08 02:13:00;;;;;;;2.80;2.60;;;21.80;64.40;22.50;101196.00;;;;5025945;28;20211;-55
2023/05/08 02:15:26;;;;;;;3.07;2.77;;;21.80;64.40;22.50;101191.00;;;;5030780;28;20183;-54
2023/05/08 02:17:52;;;;;;;3.00;2.80;;;21.80;64.50;22.50;101190.00;;;;5031443;28;20191;-56
2023/05/08 02:20:19;;;;;;;3.50;2.80;;;21.80;64.40;22.50;101208.00;;;;5030092;28;20602;-55
2023/05/08 02:22:45;;;;;;;2.87;2.63;;;21.80;64.40;22.50;101206.00;;;;5030287;28;20171;-56
2023/05/08 02:25:13;;;;;;;2.90;2.70;;;21.80;64.40;22.40;101193.00;;;;5030021;28;20261;-56
2023/05/08 02:27:42;;;;;;;3.00;2.80;;;21.80;64.50;22.40;101197.00;;;;5029704;28;20191;-55
2023/05/08 02:30:09;;;;;;;3.13;2.83;;;21.70;64.30;22.40;101204.00;;;;5029735;28;20209;-57
2023/05/08 02:32:35;;;;;;;3.10;2.83;;;21.70;64.40;22.40;101184.00;;;;5029881;28;20171;-56
2023/05/08 02:35:00;;;;;;;3.00;2.80;;;21.70;64.40;22.40;101199.00;;;;5029942;28;20252;-55
2023/05/08 02:37:26;;;;;;;3.30;2.83;;;21.70;64.70;22.40;101211.00;;;;5029680;28;20225;-56
2023/05/08 02:39:53;;;;;;;3.03;2.83;;;21.70;64.80;22.40;101212.00;;;;5029458;28;20676;-57
2023/05/08 02:42:18;;;;;;;5.17;3.03;;;21.70;64.90;22.40;101209.00;;;;5031063;28;20175;-56
2023/05/08 02:44:44;;;;;;;3.03;2.80;;;21.70;64.90;22.40;101210.00;;;;5029796;28;20661;-56
2023/05/08 02:47:20;;;;;;;2.87;2.67;;;21.80;65.00;22.40;101213.00;;;;5029521;28;20311;-57
2023/05/08 02:50:14;;;;;;;2.87;2.67;;;21.70;64.90;22.40;101217.00;;;;5029606;28;20239;-58
2023/05/08 02:52:48;;;;;;;3.00;2.80;;;21.70;64.90;22.30;101223.00;;;;5030385;28;20179;-56
2023/05/08 02:55:18;;;;;;;3.10;2.90;;;21.70;65.60;22.30;101223.00;;;;5029573;28;20178;-57
2023/05/08 02:58:18;;;;;;;4.43;3.00;;;21.70;64.90;22.30;101213.00;;;;5029120;28;20198;-57
2023/05/08 03:01:05;;;;;;;3.00;2.80;;;21.70;64.80;22.30;101215.00;;;;5029307;28;20647;-56
2023/05/08 03:03:42;;;;;;;3.10;2.80;;;21.60;64.80;22.30;101219.00;;;;5029729;28;20225;-56
2023/05/08 03:06:13;;;;;;;3.07;2.87;;;21.60;64.70;22.30;101216.00;;;;5029413;28;20182;-55
2023/05/08 03:08:39;;;;;;;2.80;2.60;;;21.60;64.70;22.30;101212.00;;;;5029593;28;20202;-56
2023/05/08 03:11:09;;;;;;;3.20;2.80;;;21.60;64.70;22.30;101207.00;;;;5029430;28;20760;-56
2023/05/08 03:13:35;;;;;;;2.80;2.60;;;21.60;64.60;22.30;101206.00;;;;5030599;28;20286;-55
2023/05/08 03:16:02;;;;;;;2.80;2.60;;;21.60;64.60;22.20;101207.00;;;;5029289;28;20187;-57
2023/05/08 03:18:32;;;;;;;2.93;2.70;;;21.60;64.60;22.20;101209.00;;;;5009419;28;20176;-56
2023/05/08 03:20:59;;;;;;;3.63;3.10;;;21.60;64.70;22.20;101207.00;;;;5025801;28;20187;-56
2023/05/08 03:23:26;;;;;;;5.03;2.90;;;21.60;64.80;22.20;101213.00;;;;5029006;28;20193;-56
2023/05/08 03:25:52;;;;;;;3.33;3.03;;;21.60;65.00;22.20;101210.00;;;;5028877;28;20264;-58
2023/05/08 03:28:18;;;;;;;3.50;2.70;;;21.60;65.10;22.20;101204.00;;;;5020253;28;20267;-57
2023/05/08 03:30:43;;;;;;;3.10;2.80;;;21.60;64.90;22.20;101210.00;;;;5028932;28;20178;-57
2023/05/08 03:33:10;;;;;;;3.53;2.80;;;21.50;64.70;22.20;101203.00;;;;5021778;28;21246;-58
2023/05/08 03:35:37;;;;;;;3.57;3.00;;;21.50;64.80;22.20;101203.00;;;;5010181;28;20206;-57
2023/05/08 03:38:03;;;;;;;5.17;3.03;;;21.50;64.70;22.20;101205.00;;;;5027639;28;20187;-57
2023/05/08 03:40:29;;;;;;;3.87;3.37;;;21.60;64.70;22.20;101197.00;;;;5029959;28;20194;-57
2023/05/08 03:42:56;;;;;;;3.30;3.00;;;21.50;64.60;22.10;101195.00;;;;5025302;28;20203;-59
2023/05/08 03:45:22;;;;;;;3.40;3.20;;;21.50;64.70;22.10;101195.00;;;;5034960;28;20224;-57
2023/05/08 03:47:48;;;;;;;3.53;3.30;;;21.40;64.60;22.10;101192.00;;;;5031064;28;20179;-57
2023/05/08 03:50:13;;;;;;;5.23;3.80;;;21.40;64.60;22.00;101177.00;;;;5031138;28;20225;-57
2023/05/08 03:52:39;;;;;;;4.10;3.73;;;21.40;64.60;22.00;101189.00;;;;5030315;28;20179;-59
2023/05/08 03:55:05;;;;;;;4.03;3.73;;;21.40;64.70;22.00;101197.00;;;;5032480;28;20657;-57
2023/05/08 03:57:37;;;;;;;4.10;3.80;;;21.30;64.70;22.00;101177.00;;;;5035875;28;20179;-58
2023/05/08 04:00:23;;;;;;;5.00;4.00;;;21.30;64.60;22.00;101184.00;;;;5040464;28;20688;-58
2023/05/08 04:03:17;;;;;;;4.10;3.80;;;21.30;64.60;21.90;101177.00;;;;5028096;28;20187;-57
2023/05/08 04:05:50;;;;;;;4.70;4.33;;;21.30;64.50;21.90;101196.00;;;;5028384;28;20274;-57
2023/05/08 04:08:42;;;;;;;5.70;4.30;;;21.30;64.50;21.90;101197.00;;;;5029695;28;20179;-57
2023/05/08 04:11:21;;;;;;;5.33;4.50;;;21.20;64.40;21.80;101181.00;;;;5009817;28;20214;-56
2023/05/08 04:13:49;;;;;;;4.60;4.13;;;21.20;64.50;21.80;101194.00;;;;5029399;28;20210;-57
2023/05/08 04:16:26;;;;;;;4.90;4.50;;;21.20;64.50;21.80;101196.00;;;;5029008;28;20175;-56
2023/05/08 04:19:00;;;;;;;5.20;4.70;;;21.20;64.50;21.80;101184.00;;;;5027137;28;20699;-57
2023/05/08 04:21:25;;;;;;;5.00;4.60;;;21.20;64.50;21.80;101202.00;;;;5028434;28;20179;-59
2023/05/08 04:23:51;;;;;;;4.70;4.30;;;21.20;64.50;21.80;101201.00;;;;5028729;28;20198;-57
2023/05/08 04:26:17;;;;;;;7.17;4.67;;;21.10;64.40;21.80;101209.00;;;;5026466;28;20215;-57
2023/05/08 04:28:45;;;;;;;5.00;4.60;;;21.10;64.50;21.80;101212.00;;;;5024176;28;20214;-57
2023/05/08 04:31:12;;;;;;;5.00;4.60;;;21.10;64.40;21.70;101211.00;;;;5029574;28;20182;-58
2023/05/08 04:33:38;;;;;;;5.37;4.97;;;21.10;64.40;21.70;101204.00;;;;5029647;28;20202;-58
2023/05/08 04:36:04;;;;;;;4.90;4.50;;;21.10;64.30;21.70;101198.00;;;;5033353;28;20904;-59
2023/05/08 04:38:30;;;;;;;5.10;4.60;;;21.10;64.40;21.70;101212.00;;;;5029382;28;20209;-59
2023/05/08 04:40:56;;;;;;;5.17;4.67;;;21.10;64.30;21.70;101211.00;;;;5029579;28;20175;-59
2023/05/08 04:43:21;;;;;;;5.50;5.10;;;21.00;64.30;21.70;101213.00;;;;5028683;28;20183;-59
2023/05/08 04:45:47;;;;;;;5.50;5.10;;;21.00;64.40;21.70;101218.00;;;;5029711;28;20175;-57
2023/05/08 04:48:13;;;;;;;5.37;4.97;;;21.00;64.50;21.60;101210.00;;;;5028328;28;20178;-59
2023/05/08 04:50:38;;;;;;;5.40;5.00;;;21.00;64.50;21.60;101210.00;;;;5028310;28;20567;-59
2023/05/08 04:53:04;;;;;;;5.50;5.00;;;21.00;64.50;21.60;101209.00;;;;5029277;28;20635;-57
2023/05/08 04:55:30;;;;;;;5.60;5.10;;;21.00;64.50;21.60;101224.00;;;;5029359;28;20551;-58
2023/05/08 04:57:55;;;;;;;6.10;5.50;;;21.00;64.60;21.60;101221.00;;;;5029044;28;20183;-56
2023/05/08 05:00:21;;;;;;;5.93;5.33;;;21.00;64.40;21.60;101232.00;;;;5027677;28;20191;-57
2023/05/08 05:02:47;;;;;;;5.77;5.27;;;21.00;64.50;21.60;101225.00;;;;5027890;28;20175;-57
2023/05/08 05:05:13;;;;;;;5.67;5.27;;;20.90;64.30;21.60;101224.00;;;;5029273;28;20230;-58
2023/05/08 05:07:38;;;;;;;5.40;4.90;;;21.00;64.50;21.60;101229.00;;;;5028758;28;20171;-57
2023/05/08 05:10:04;;;;;;;6.00;5.50;;;20.90;64.40;21.60;101234.00;;;;5028762;28;20792;-60
2023/05/08 05:12:30;;;;;;;5.60;5.13;;;20.90;64.30;21.50;101238.00;;;;5028022;28;20182;-59
2023/05/08 05:14:56;;;;;;;5.30;4.90;;;20.90;64.20;21.50;101224.00;;;;5019702;28;20218;-61
2023/05/08 05:17:21;;;;;;;5.33;4.93;;;20.90;64.10;21.50;101239.00;;;;5028484;28;20182;-58
2023/05/08 05:19:47;;;;;;;5.77;5.37;;;20.90;63.90;21.50;101237.00;;;;5027534;28;20570;-60
2023/05/08 05:22:13;;;;;;;5.63;5.13;;;20.90;64.00;21.50;101247.00;;;;5028263;28;20202;-57
2023/05/08 05:24:39;;;;;;;5.57;5.17;;;20.90;64.10;21.50;101230.00;;;;5028148;28;20182;-57
2023/05/08 05:27:05;;;;;;;5.50;5.10;;;20.90;64.20;21.50;101242.00;;;;5027419;28;20267;-57
2023/05/08 05:29:31;;;;;;;5.70;5.20;;;20.80;64.10;21.50;101246.00;;;;5028631;28;20335;-59
2023/05/08 05:31:57;;;;;;;5.20;4.80;;;20.90;64.10;21.50;101246.00;;;;5028782;28;20187;-58
2023/05/08 05:34:22;;;;;;;5.30;4.90;;;20.90;64.80;21.50;101246.00;;;;5028751;28;20322;-58
2023/05/08 05:36:48;;;;;;;6.10;5.60;;;20.80;64.00;21.50;101250.00;;;;5029258;28;20843;-58
2023/05/08 05:39:14;;;;;;;5.40;5.00;;;20.80;63.90;21.50;101258.00;;;;5011956;28;20203;-58
2023/05/08 05:41:43;;;;;;;5.50;5.10;;;20.90;64.00;21.50;101259.00;;;;5026006;28;20185;-59
2023/05/08 05:44:08;;;;;;;5.73;5.23;;;20.80;63.90;21.50;101252.00;;;;5028529;28;20182;-58
2023/05/08 05:46:34;;;;;;;5.50;5.10;;;20.90;64.10;21.50;101254.00;;;;5031145;28;20183;-58
2023/05/08 05:49:00;;;;;;;5.87;5.27;;;20.90;64.10;21.50;101257.00;;;;5029028;28;20302;-58
2023/05/08 05:51:26;;;;;;;5.17;4.70;;;20.90;64.00;21.50;101263.00;;;;5035671;28;20182;-59
2023/05/08 05:53:52;;;;;;;5.77;5.37;;;20.80;63.90;21.50;101253.00;;;;5035095;28;20561;-58
2023/05/08 05:56:18;;;;;;;5.50;5.00;;;20.80;63.90;21.50;101276.00;;;;5033473;28;20184;-58
2023/05/08 05:58:44;;;;;;;5.00;4.60;;;20.80;63.90;21.50;101275.00;;;;5029794;28;20203;-58
2023/05/08 06:01:10;;;;;;;5.17;4.67;;;20.80;63.90;21.50;101268.00;;;;5031753;28;20179;-57
2023/05/08 06:03:36;;;;;;;5.33;4.93;;;20.80;64.00;21.40;101271.00;;;;5024641;28;20186;-58
2023/05/08 06:06:02;;;;;;;5.17;4.77;;;20.80;63.90;21.40;101271.00;;;;5029321;28;20187;-58
2023/05/08 06:08:28;;;;;;;5.40;5.00;;;20.80;63.90;21.40;101274.00;;;;5027634;28;20190;-61
2023/05/08 06:10:54;;;;;;;5.43;5.03;;;20.70;64.10;21.40;101265.00;;;;5020628;28;20190;-57
2023/05/08 06:13:20;;;;;;;5.40;5.00;;;20.70;64.00;21.40;101270.00;;;;5028694;28;20234;-57
2023/05/08 06:15:45;;;;;;;5.10;4.70;;;20.80;64.10;21.40;101275.00;;;;5029088;28;20178;-58
2023/05/08 06:18:11;;;;;;;5.33;4.93;;;20.80;64.90;21.40;101270.00;;;;5028066;28;20225;-56
2023/05/08 06:20:37;;;;;;;4.93;4.63;;;20.80;64.00;21.40;101285.00;;;;5028584;28;20210;-58
2023/05/08 06:23:04;;;;;;;4.87;4.47;;;20.80;63.90;21.40;101283.00;;;;5028597;28;20186;-58
2023/05/08 06:25:29;;;;;;;5.10;4.70;;;20.80;63.90;21.50;101278.00;;;;5028585;28;20661;-59
2023/05/08 06:27:55;;;;;;;5.47;4.97;;;20.80;63.90;21.40;101278.00;;;;5031788;28;20201;-57
2023/05/08 06:30:21;;;;;;;5.00;4.60;;;20.80;63.90;21.50;101281.00;;;;5032067;28;20278;-57
2023/05/08 06:32:47;;;;;;;5.00;4.50;;;20.80;64.00;21.50;101286.00;;;;5031823;28;20194;-57
2023/05/08 06:35:17;;;;;;;5.10;4.70;;;20.80;63.90;21.40;101279.00;;;;5031483;28;20236;-57
2023/05/08 06:37:43;;;;;;;5.40;4.90;;;20.80;64.10;21.40;101276.00;;;;5031630;28;20185;-58
2023/05/08 06:40:10;;;;;;;5.60;4.67;;;20.80;64.10;21.40;101283.00;;;;5031851;28;20202;-57
2023/05/08 06:42:36;;;;;;;5.20;4.80;;;20.80;64.10;21.40;101285.00;;;;5031659;28;20245;-59
2023/05/08 06:45:02;;;;;;;5.97;4.83;;;20.80;64.10;21.40;101281.00;;;;5032103;28;20218;-58
2023/05/08 06:47:28;;;;;;;5.00;4.60;;;20.80;64.50;21.50;101278.00;;;;5031702;28;20182;-57
2023/05/08 06:49:54;;;;;;;5.03;4.53;;;20.80;64.50;21.40;101278.00;;;;5032263;28;20213;-56
2023/05/08 06:52:20;;;;;;;5.20;4.70;;;20.80;64.40;21.40;101278.00;;;;5032193;28;20887;-56
2023/05/08 06:54:45;;;;;;;5.10;4.60;;;20.80;64.30;21.50;101275.00;;;;5031420;28;20689;-57
2023/05/08 06:57:13;;;;;;;4.93;4.53;;;20.80;64.20;21.50;101278.00;;;;5032923;28;20189;-57
2023/05/08 06:59:39;;;;;;;4.67;4.30;;;20.80;64.30;21.40;101273.00;;;;5038023;28;20211;-57
2023/05/08 07:02:05;;;;;;;4.60;4.20;;;20.80;64.20;21.40;101263.00;;;;5032238;28;20244;-58
2023/05/08 07:04:31;;;;;;;4.63;4.33;;;20.80;64.20;21.40;101269.00;;;;5031608;28;20183;-58
2023/05/08 07:06:56;;;;;;;4.87;4.47;;;20.80;64.20;21.40;101253.00;;;;5030732;28;20183;-57
2023/05/08 07:09:22;;;;;;;4.80;4.40;;;20.80;64.20;21.40;101263.00;;;;5031452;28;20207;-57
2023/05/08 07:11:48;;;;;;;5.43;4.77;;;20.80;64.20;21.40;101252.00;;;;5031710;28;20190;-57
2023/05/08 07:14:13;;;;;;;4.60;4.20;;;20.80;64.20;21.40;101262.00;;;;5031877;28;20284;-57
2023/05/08 07:16:39;;;;;;;4.73;4.33;;;20.80;64.20;21.40;101269.00;;;;5031622;28;20183;-56
2023/05/08 07:19:05;;;;;;;5.73;4.63;;;20.80;64.30;21.40;101274.00;;;;5031701;28;20198;-56
2023/05/08 07:21:30;;;;;;;10.07;4.87;;;20.80;64.30;21.50;101279.00;;;;5031458;28;20182;-56
2023/05/08 07:23:56;;;;;;;6.87;4.67;;;20.80;64.30;21.50;101288.00;;;;5031302;28;20179;-57
2023/05/08 07:26:22;;;;;;;6.97;4.67;;;20.80;64.40;21.50;101286.00;;;;5031313;28;20194;-57
2023/05/08 07:28:49;;;;;;;5.10;4.53;;;20.80;64.60;21.50;101294.00;;;;5031149;28;20218;-56
2023/05/08 07:31:15;;;;;;;8.80;4.60;;;20.80;64.60;21.50;101296.00;;;;5031473;28;20192;-57
2023/05/08 07:33:41;;;;;;;8.70;4.67;;;20.80;64.60;21.50;101297.00;;;;5031371;28;20195;-58
2023/05/08 07:36:07;;;;;;;7.00;4.57;;;20.80;64.60;21.50;101300.00;;;;5031440;28;20193;-59
2023/05/08 07:38:32;;;;;;;9.20;4.97;;;20.80;64.60;21.50;101303.00;;;;5031048;28;20221;-58
2023/05/08 07:41:00;;;;;;;7.13;4.53;;;20.80;64.50;21.50;101303.00;;;;5030933;28;20554;-56
2023/05/08 07:43:26;;;;;;;5.40;4.37;;;20.80;64.50;21.30;101299.00;;;;5031444;28;20175;-57
2023/05/08 07:45:52;;;;;;;5.20;4.33;;;20.80;64.60;21.40;101295.00;;;;5031441;28;20193;-58
2023/05/08 07:48:18;;;;;;;6.70;4.50;;;20.80;64.50;21.50;101301.00;;;;5035195;28;20209;-58
2023/05/08 07:50:44;;;;;;;7.10;4.40;;;20.80;64.50;21.50;101302.00;;;;5036563;28;20233;-57
2023/05/08 07:53:10;;;;;;;4.83;4.13;;;20.80;64.50;21.50;101303.00;;;;5032715;28;20210;-57
2023/05/08 07:55:35;;;;;;;4.97;4.40;;;20.70;64.30;21.50;101309.00;;;;5032555;28;20174;-56
2023/05/08 07:58:01;;;;;;;5.17;4.37;;;20.70;64.30;21.50;101316.00;;;;5030974;28;20179;-58
2023/05/08 08:00:28;;;;;;;5.73;4.40;;;20.70;64.30;21.50;101307.00;;;;5032562;28;20202;-60
2023/05/08 08:02:54;;;;;;;5.27;4.63;;;20.70;64.30;21.50;101322.00;;;;5032483;28;20185;-58
2023/05/08 08:05:20;;;;;;;4.70;4.27;;;20.70;64.40;21.40;101320.00;;;;5023083;28;20170;-58
2023/05/08 08:07:45;;;;;;;4.70;4.30;;;20.70;64.30;21.40;101315.00;;;;5030890;28;20666;-57
2023/05/08 08:10:11;;;;;;;5.10;4.17;;;20.70;64.30;21.40;101317.00;;;;5030937;28;20570;-59
2023/05/08 08:12:37;;;;;;;5.80;4.27;;;20.70;64.30;21.50;101323.00;;;;5030958;28;20553;-58
2023/05/08 08:15:04;;;;;;;4.80;4.17;;;20.70;64.30;21.40;101323.00;;;;5030813;28;20284;-61
2023/05/08 08:17:30;;;;;;;6.53;4.10;;;20.70;64.30;21.50;101321.00;;;;5030775;28;20174;-57
2023/05/08 08:19:55;;;;;;;4.50;3.80;;;20.70;64.30;21.40;101317.00;;;;5030774;28;20194;-58
2023/05/08 08:22:22;;;;;;;5.00;4.13;;;20.70;64.30;21.40;101319.00;;;;5030686;28;20176;-60
2023/05/08 08:24:47;;;;;;;4.47;4.07;;;20.70;64.30;21.40;101323.00;;;;5030587;28;20228;-58
2023/05/08 08:27:13;;;;;;;4.40;4.00;;;20.70;64.30;21.40;101318.00;;;;5030091;28;20602;-59
2023/05/08 08:29:39;;;;;;;4.80;4.20;;;20.70;64.30;21.50;101317.00;;;;5030152;28;20770;-57
2023/05/08 08:32:05;;;;;;;4.97;4.23;;;20.70;64.30;21.50;101316.00;;;;5030934;28;20186;-57
2023/05/08 08:34:32;;;;;;;4.20;3.90;;;20.70;64.30;21.50;101322.00;;;;5030405;28;20222;-56
2023/05/08 08:36:59;;;;;;;4.40;4.00;;;20.70;64.30;21.50;101311.00;;;;5029955;28;20285;-59
2023/05/08 08:39:25;;;;;;;4.37;3.93;;;20.70;64.30;21.50;101301.00;;;;5030089;28;20290;-58
2023/05/08 08:41:50;;;;;;;5.63;4.00;;;20.70;64.30;21.50;101301.00;;;;5030167;28;20229;-57
2023/05/08 08:44:16;;;;;;;5.27;4.07;;;20.70;64.30;21.40;101306.00;;;;5029829;28;20186;-58
2023/05/08 08:46:50;;;;;;;4.53;4.10;;;20.70;64.40;21.40;101304.00;;;;5030040;28;20181;-58
2023/05/08 08:49:29;;;;;;;5.10;3.87;;;20.70;64.40;21.50;101291.00;;;;5030265;28;20206;-62
2023/05/08 08:52:30;;;;;;;4.30;3.90;;;20.70;64.40;21.50;101301.00;;;;5031080;28;20735;-58
2023/05/08 08:54:59;;;;;;;5.53;4.03;;;20.70;64.40;21.50;101299.00;;;;5024808;28;20224;-58
2023/05/08 08:57:26;;;;;;;4.20;3.70;;;20.70;64.30;21.50;101305.00;;;;5012727;28;20177;-57
2023/05/08 08:59:52;;;;;;;4.63;3.77;;;20.70;64.30;21.50;101300.00;;;;5028728;28;20747;-58
2023/05/08 09:02:18;;;;;;;4.20;3.80;;;20.70;64.30;21.50;101301.00;;;;5028803;28;20218;-57
2023/05/08 09:04:44;;;;;;;4.17;3.77;;;20.70;64.30;21.50;101316.00;;;;5029197;28;20170;-58
2023/05/08 09:07:11;;;;;;;4.30;3.90;;;20.70;64.30;21.50;101312.00;;;;5029585;28;20780;-58
2023/05/08 09:09:39;;;;;;;4.30;3.90;;;20.70;64.30;21.50;101308.00;;;;5029927;28;20282;-58
2023/05/08 09:12:06;;;;;;;4.07;3.67;;;20.70;64.30;21.50;101312.00;;;;5029335;28;20194;-57
2023/05/08 09:14:32;;;;;;;4.30;3.90;;;20.70;64.30;21.60;101306.00;;;;5012215;28;20257;-57
2023/05/08 09:16:57;;;;;;;4.30;3.90;;;20.70;64.30;21.50;101306.00;;;;5029645;28;20175;-57
2023/05/08 09:19:24;;;;;;;4.10;3.80;;;20.70;64.30;21.60;101285.00;;;;5029995;28;20194;-58
2023/05/08 09:21:50;;;;;;;3.97;3.67;;;20.70;64.30;21.30;101319.00;;;;5029639;28;20175;-58
2023/05/08 09:24:15;;;;;;;3.90;3.60;;;20.70;64.30;21.60;101312.00;;;;5023529;28;20179;-57
2023/05/08 09:26:41;;;;;;;4.50;4.10;;;20.70;64.30;21.60;101320.00;;;;5030778;28;20326;-56
2023/05/08 09:29:12;;;;;;;3.87;3.57;;;20.70;64.30;21.60;101312.00;;;;5029567;28;20703;-59
2023/05/08 09:31:41;;;;;;;3.90;3.60;;;20.80;64.50;21.60;101318.00;;;;5029500;28;20299;-58
2023/05/08 09:34:22;;;;;;;5.37;3.60;;;20.80;64.60;21.60;101312.00;;;;5021315;28;20294;-61
2023/05/08 09:36:48;;;;;;;3.90;3.60;;;20.80;64.40;21.60;101316.00;;;;5028602;28;20204;-58
2023/05/08 09:39:14;;;;;;;3.97;3.67;;;20.80;64.50;21.60;101314.00;;;;5028399;28;20199;-58
2023/05/08 09:41:46;;;;;;;4.90;3.90;;;20.80;64.50;21.60;101309.00;;;;5011680;28;20198;-58
2023/05/08 09:44:11;;;;;;;4.53;3.87;;;20.80;64.60;21.60;101319.00;;;;5012119;28;20190;-59
2023/05/08 09:46:37;;;;;;;5.00;4.00;;;20.80;64.60;21.60;101316.00;;;;5027959;28;20186;-58
2023/05/08 09:49:03;;;;;;;4.03;3.70;;;20.80;64.60;21.60;101322.00;;;;5032234;28;20237;-60
2023/05/08 09:51:30;;;;;;;3.87;3.57;;;20.80;64.60;21.60;101318.00;;;;5049782;28;20451;-61
2023/05/08 09:53:57;;;;;;;3.73;3.43;;;20.80;64.50;21.60;101325.00;;;;5033922;28;20226;-56
2023/05/08 09:56:38;;;;;;;4.30;3.90;;;20.80;64.60;21.60;101328.00;;;;5036031;28;20180;-62
2023/05/08 09:59:27;;;;;;;3.80;3.50;;;20.80;64.50;21.70;101333.00;;;;5034180;28;20198;-57
2023/05/08 10:01:54;;;;;;;3.90;3.60;;;20.80;64.50;21.60;101323.00;;;;5036794;28;20207;-57
2023/05/08 10:04:34;;;;;;;3.90;3.60;;;20.80;64.60;21.60;101330.00;;;;5039470;28;20661;-59
2023/05/08 10:07:00;;;;;;;3.80;3.50;;;20.80;64.60;21.70;101326.00;;;;5046872;28;20178;-59
2023/05/08 10:09:25;;;;;;;3.83;3.53;;;20.80;64.60;21.70;101322.00;;;;5034263;28;20278;-58
2023/05/08 10:11:52;;;;;;;3.70;3.40;;;20.80;64.60;21.70;101323.00;;;;5033195;28;20176;-60
2023/05/08 10:14:18;;;;;;;4.17;3.87;;;20.80;64.60;21.70;101318.00;;;;5033156;28;20681;-59
2023/05/08 10:16:45;;;;;;;4.00;3.70;;;20.80;64.60;21.70;101318.00;;;;5027177;28;20237;-58
2023/05/08 10:19:17;;;;;;;3.97;3.67;;;20.70;64.50;21.70;101316.00;;;;5031396;28;20612;-58
2023/05/08 10:21:46;;;;;;;3.70;3.40;;;20.80;64.60;21.70;101309.00;;;;5033245;28;20209;-57
2023/05/08 10:24:24;;;;;;;3.93;3.63;;;20.80;64.60;21.70;101311.00;;;;5033060;28;20194;-57
2023/05/08 10:27:02;;;;;;;3.90;3.60;;;20.80;64.60;21.70;101305.00;;;;5033232;28;20179;-58
2023/05/08 10:29:34;;;;;;;3.40;3.20;;;20.80;64.70;21.70;101310.00;;;;5032322;28;20715;-59
2023/05/08 10:31:59;;;;;;;4.30;3.90;;;20.80;64.60;21.70;101306.00;;;;5031806;28;20197;-59
2023/05/08 10:34:27;;;;;;;3.77;3.47;;;20.80;64.70;21.70;101312.00;;;;5031544;28;20195;-60
2023/05/08 10:36:53;;;;;;;3.50;3.30;;;20.80;64.70;21.70;101296.00;;;;5032771;28;20300;-56
2023/05/08 10:39:19;;;;;;;3.90;3.60;;;20.80;64.80;21.70;101303.00;;;;5031533;28;20245;-57
2023/05/08 10:41:44;;;;;;;3.70;3.40;;;20.80;64.80;21.70;101304.00;;;;5031356;28;20168;-59
2023/05/08 10:44:10;;;;;;;3.80;3.50;;;20.80;64.80;21.70;101301.00;;;;5031239;28;20209;-57
2023/05/08 10:47:02;;;;;;;3.90;3.60;;;20.80;64.90;21.80;101289.00;;;;5014831;28;20229;-58
2023/05/08 10:49:42;;;;;;;3.73;3.40;;;20.80;64.90;21.80;101305.00;;;;5023065;28;20582;-57
2023/05/08 10:53:02;;;;;;;3.63;3.33;;;20.80;64.90;21.80;101284.00;;;;5031390;28;20195;-57
2023/05/08 10:55:32;;;;;;;3.67;3.37;;;20.80;64.90;21.80;101286.00;;;;5033059;28;20589;-57